Time;durP1;ratioP1;P1;durP2;ratioP2;P2;SDS_P1;SDS_P2;PMS_P1;PMS_P2;Temp;Humidity;BMP_temperature;BMP_pressure;BME280_temperature;BME280_humidity;BME280_pressure;Samples;Min_cycle;Max_cycle;Signal;HPM_P1;HPM_P2
2022/11/27 00:02:04;;;;;;;14.27;4.20;;;7.20;99.90;;;;;;5058103;28;20070;-84
2022/11/27 00:04:30;;;;;;;16.17;4.57;;;7.10;99.90;;;;;;5058459;28;20029;-84
2022/11/27 00:06:55;;;;;;;17.33;5.33;;;7.00;99.90;;;;;;5058416;28;20116;-84
2022/11/27 00:09:21;;;;;;;14.63;4.17;;;7.00;99.90;;;;;;5074856;28;20047;-84
2022/11/27 00:11:46;;;;;;;14.13;4.47;;;7.00;99.90;;;;;;5040718;28;20484;-84
2022/11/27 00:14:14;;;;;;;17.87;6.13;;;7.00;99.90;;;;;;5074247;28;20442;-84
2022/11/27 00:16:40;;;;;;;15.10;4.57;;;7.00;99.90;;;;;;5074322;28;20025;-83
2022/11/27 00:19:06;;;;;;;12.77;4.47;;;7.00;99.90;;;;;;5074827;28;20024;-84
2022/11/27 00:21:33;;;;;;;11.50;4.30;;;7.00;99.90;;;;;;5074822;28;20028;-85
2022/11/27 00:24:01;;;;;;;13.67;4.70;;;6.90;99.90;;;;;;5074633;28;20028;-84
2022/11/27 00:26:28;;;;;;;12.17;4.53;;;6.90;99.90;;;;;;5075934;28;20024;-85
2022/11/27 00:28:54;;;;;;;17.97;5.10;;;7.00;99.90;;;;;;5074019;28;20076;-86
2022/11/27 00:31:31;;;;;;;14.80;4.33;;;7.00;99.90;;;;;;5074835;28;20021;-86
2022/11/27 00:34:02;;;;;;;12.33;4.33;;;6.90;99.90;;;;;;5074801;28;20036;-86
2022/11/27 00:36:32;;;;;;;13.60;4.57;;;6.90;99.90;;;;;;5074532;28;20052;-85
2022/11/27 00:38:58;;;;;;;17.23;4.77;;;6.90;99.90;;;;;;5073902;28;20027;-83
2022/11/27 00:41:27;;;;;;;12.97;4.67;;;6.90;99.90;;;;;;5073784;28;20447;-83
2022/11/27 00:43:53;;;;;;;16.20;4.13;;;7.00;99.90;;;;;;5075303;28;20020;-84
2022/11/27 00:46:24;;;;;;;20.40;5.60;;;6.90;99.90;;;;;;5075646;28;20535;-85
2022/11/27 00:48:50;;;;;;;14.77;4.60;;;6.90;99.90;;;;;;5074321;28;20040;-85
2022/11/27 00:51:18;;;;;;;14.77;4.50;;;6.90;99.90;;;;;;5057585;28;20396;-85
2022/11/27 00:53:44;;;;;;;20.00;5.10;;;6.90;99.90;;;;;;5073912;28;20025;-84
2022/11/27 00:56:18;;;;;;;12.47;4.17;;;6.90;99.90;;;;;;5057123;28;20036;-85
2022/11/27 00:58:44;;;;;;;19.70;5.05;;;6.90;99.90;;;;;;5074175;28;20048;-84
2022/11/27 01:01:19;;;;;;;18.77;5.10;;;6.80;99.90;;;;;;5057372;28;20480;-83
2022/11/27 01:03:46;;;;;;;15.40;4.70;;;6.80;99.90;;;;;;5075056;28;20027;-83
2022/11/27 01:06:12;;;;;;;12.40;3.97;;;6.80;99.90;;;;;;5073664;28;20020;-83
2022/11/27 01:08:38;;;;;;;16.93;5.40;;;6.80;99.90;;;;;;5073089;28;20157;-83
2022/11/27 01:11:04;;;;;;;14.27;4.93;;;6.80;99.90;;;;;;5072653;28;20527;-83
2022/11/27 01:13:32;;;;;;;10.93;4.30;;;6.70;99.90;;;;;;5073166;28;20040;-83
2022/11/27 01:16:11;;;;;;;15.53;4.97;;;6.70;99.90;;;;;;5073529;28;20025;-83
2022/11/27 01:18:38;;;;;;;14.60;5.17;;;6.70;99.90;;;;;;5073676;28;20034;-83
2022/11/27 01:21:05;;;;;;;13.33;5.20;;;6.60;99.90;;;;;;5073778;28;20021;-84
2022/11/27 01:23:31;;;;;;;15.00;4.87;;;6.70;99.90;;;;;;5073609;28;20105;-84
2022/11/27 01:25:59;;;;;;;14.33;5.07;;;6.50;99.80;;;;;;5073838;28;20484;-85
2022/11/27 01:28:24;;;;;;;14.07;4.97;;;6.40;99.80;;;;;;5074995;28;20157;-85
2022/11/27 01:30:50;;;;;;;17.60;5.80;;;6.50;99.80;;;;;;5056824;28;20508;-85
2022/11/27 01:33:17;;;;;;;18.17;5.37;;;6.40;99.80;;;;;;5073217;28;20472;-85
2022/11/27 01:35:51;;;;;;;11.27;5.43;;;6.40;99.80;;;;;;5056964;28;20037;-84
2022/11/27 01:38:17;;;;;;;;;;;6.30;99.80;;;;;;5074017;28;20460;-84
2022/11/27 01:40:42;;;;;;;13.53;5.90;;;6.30;99.80;;;;;;5056201;28;19909;-86
2022/11/27 01:43:14;;;;;;;17.70;5.50;;;6.30;99.80;;;;;;5055973;28;20039;-84
2022/11/27 01:45:39;;;;;;;13.23;5.93;;;6.20;99.80;;;;;;5072883;28;20020;-83
2022/11/27 01:48:05;;;;;;;14.37;6.00;;;6.20;99.80;;;;;;5072738;28;20016;-85
2022/11/27 01:50:36;;;;;;;14.93;5.33;;;6.20;99.90;;;;;;5072038;28;20128;-85
2022/11/27 01:53:11;;;;;;;20.13;6.40;;;6.20;99.90;;;;;;5072795;28;20021;-85
2022/11/27 01:55:43;;;;;;;17.80;6.33;;;6.10;99.90;;;;;;5072755;28;20036;-86
2022/11/27 01:58:18;;;;;;;15.93;5.63;;;6.10;99.90;;;;;;5072579;28;20032;-86
2022/11/27 02:00:44;;;;;;;17.83;7.13;;;6.10;99.90;;;;;;5072591;28;20021;-84
2022/11/27 02:03:10;;;;;;;19.27;7.87;;;6.10;99.90;;;;;;5056277;28;20035;-84
2022/11/27 02:05:36;;;;;;;21.33;6.73;;;6.00;99.90;;;;;;5072863;28;20037;-86
2022/11/27 02:08:06;;;;;;;18.57;7.10;;;6.00;99.90;;;;;;5056279;28;20426;-87
2022/11/27 02:10:38;;;;;;;19.97;7.03;;;6.20;99.90;;;;;;5073996;28;20052;-87
2022/11/27 02:13:10;;;;;;;14.57;6.27;;;6.00;99.90;;;;;;5073290;28;20031;-88
2022/11/27 02:15:52;;;;;;;15.30;6.83;;;6.00;99.90;;;;;;5074416;28;20035;-87
2022/11/27 02:18:45;;;;;;;10.90;5.50;;;6.00;99.90;;;;;;5072772;28;20468;-87
2022/11/27 02:21:27;;;;;;;14.60;6.13;;;5.90;99.90;;;;;;5064656;28;20573;-86
2022/11/27 02:24:07;;;;;;;17.77;6.30;;;6.00;99.90;;;;;;5072305;28;20031;-88
2022/11/27 02:26:39;;;;;;;16.33;5.80;;;6.00;99.90;;;;;;5074300;28;20029;-86
2022/11/27 02:29:07;;;;;;;18.97;6.37;;;6.00;99.90;;;;;;5073844;28;20025;-87
2022/11/27 02:32:01;;;;;;;20.07;7.63;;;6.00;99.90;;;;;;5072973;28;20115;-86
2022/11/27 02:34:35;;;;;;;19.25;5.90;;;5.90;99.90;;;;;;5072592;28;20064;-86
2022/11/27 02:37:21;;;;;;;17.13;6.60;;;6.00;99.90;;;;;;5073793;28;20034;-86
2022/11/27 02:39:55;;;;;;;15.33;6.07;;;6.00;99.90;;;;;;5061901;28;20036;-86
2022/11/27 02:42:20;;;;;;;;;;;5.90;99.90;;;;;;5073537;28;20428;-86
2022/11/27 02:44:55;;;;;;;11.43;5.50;;;5.90;99.90;;;;;;5071897;28;19909;-86
2022/11/27 02:47:22;;;;;;;10.20;5.13;;;5.90;99.90;;;;;;5072069;28;20019;-84
2022/11/27 02:49:49;;;;;;;14.53;5.87;;;5.90;99.90;;;;;;5071931;28;20047;-85
2022/11/27 02:52:18;;;;;;;16.63;5.73;;;5.90;99.90;;;;;;5071941;28;20472;-86
2022/11/27 02:54:46;;;;;;;20.03;5.20;;;5.90;99.90;;;;;;5073742;28;20024;-84
2022/11/27 02:57:13;;;;;;;17.67;7.33;;;5.90;99.90;;;;;;5072953;28;20020;-86
2022/11/27 02:59:41;;;;;;;15.47;5.17;;;5.90;99.90;;;;;;5072901;28;20158;-85
2022/11/27 03:02:13;;;;;;;13.53;5.67;;;6.00;99.90;;;;;;5072144;28;20068;-85
2022/11/27 03:04:46;;;;;;;9.23;3.97;;;6.00;99.90;;;;;;5072829;28;20020;-85
2022/11/27 03:07:21;;;;;;;16.70;6.47;;;5.90;99.90;;;;;;5072333;28;20025;-85
2022/11/27 03:09:49;;;;;;;16.03;5.60;;;5.90;99.90;;;;;;5072256;28;20055;-85
2022/11/27 03:12:17;;;;;;;12.40;5.00;;;5.90;99.90;;;;;;5072391;28;20045;-87
2022/11/27 03:14:45;;;;;;;17.20;6.33;;;6.00;99.90;;;;;;5076478;28;20028;-87
2022/11/27 03:17:28;;;;;;;16.83;6.13;;;6.00;99.90;;;;;;5077648;28;20025;-87
2022/11/27 03:20:00;;;;;;;16.63;5.07;;;6.00;99.90;;;;;;5073538;28;20548;-85
2022/11/27 03:22:26;;;;;;;16.33;4.80;;;6.00;99.90;;;;;;5072200;28;20017;-87
2022/11/27 03:24:52;;;;;;;18.00;5.87;;;6.10;99.90;;;;;;5072487;28;20520;-87
2022/11/27 03:27:26;;;;;;;13.37;5.50;;;6.10;99.90;;;;;;5055433;28;20028;-86
2022/11/27 03:29:58;;;;;;;12.40;5.43;;;6.10;99.90;;;;;;5071723;28;20098;-83
2022/11/27 03:32:26;;;;;;;9.57;4.50;;;6.10;99.90;;;;;;5071816;28;20479;-84
2022/11/27 03:34:53;;;;;;;15.17;4.90;;;6.20;99.90;;;;;;5074544;28;20407;-85
2022/11/27 03:37:20;;;;;;;11.50;5.00;;;6.20;99.90;;;;;;5077172;28;20100;-85
2022/11/27 03:39:45;;;;;;;12.73;4.57;;;6.20;99.90;;;;;;5058779;28;20415;-84
2022/11/27 03:42:52;;;;;;;14.33;4.20;;;6.30;99.90;;;;;;5074789;28;20021;-85
2022/11/27 03:45:42;;;;;;;13.33;4.57;;;6.30;99.90;;;;;;5074206;28;20028;-85
2022/11/27 03:48:31;;;;;;;15.03;4.60;;;6.30;99.90;;;;;;5075465;28;20389;-85
2022/11/27 03:51:13;;;;;;;12.57;4.30;;;6.30;99.90;;;;;;5076571;28;20491;-85
2022/11/27 03:53:54;;;;;;;12.10;4.93;;;6.30;99.90;;;;;;5075460;28;20086;-87
2022/11/27 03:56:37;;;;;;;11.97;4.23;;;6.30;99.90;;;;;;5075993;28;20063;-87
2022/11/27 03:59:19;;;;;;;14.20;4.10;;;6.30;99.90;;;;;;5075239;28;20020;-86
2022/11/27 04:01:45;;;;;;;12.33;4.03;;;6.40;99.90;;;;;;5076208;28;20027;-86
2022/11/27 04:04:11;;;;;;;13.60;4.87;;;6.50;99.90;;;;;;5075894;28;20468;-87
2022/11/27 04:06:37;;;;;;;13.47;4.27;;;6.50;99.90;;;;;;5059154;28;20044;-86
2022/11/27 04:09:03;;;;;;;11.50;3.93;;;6.40;99.90;;;;;;5061979;28;20037;-85
2022/11/27 04:11:28;;;;;;;16.27;5.03;;;6.40;99.90;;;;;;5060655;28;20106;-85
2022/11/27 04:13:54;;;;;;;11.40;4.20;;;6.50;99.90;;;;;;5076042;28;20422;-85
2022/11/27 04:16:20;;;;;;;12.53;4.43;;;6.50;99.90;;;;;;5042067;28;20028;-85
2022/11/27 04:18:45;;;;;;;11.30;3.87;;;6.40;99.90;;;;;;5075330;28;20549;-86
2022/11/27 04:21:11;;;;;;;10.83;3.80;;;6.50;99.90;;;;;;5068617;28;20029;-85
2022/11/27 04:23:37;;;;;;;11.67;3.90;;;6.50;99.90;;;;;;5064912;28;20031;-83
2022/11/27 04:26:03;;;;;;;13.87;5.30;;;6.50;99.90;;;;;;5072539;28;20059;-84
2022/11/27 04:28:29;;;;;;;11.60;3.50;;;6.50;99.90;;;;;;5071237;28;20033;-85
2022/11/27 04:30:55;;;;;;;10.33;4.00;;;6.60;99.90;;;;;;5054486;28;20079;-85
2022/11/27 04:33:22;;;;;;;17.73;4.57;;;6.60;99.90;;;;;;5058196;28;20025;-85
2022/11/27 04:35:48;;;;;;;15.77;4.37;;;6.60;99.90;;;;;;5070955;28;20119;-85
2022/11/27 04:38:14;;;;;;;10.27;3.63;;;6.60;99.90;;;;;;5054127;28;20036;-86
2022/11/27 04:40:40;;;;;;;10.60;3.73;;;6.60;99.90;;;;;;5066069;28;20025;-84
2022/11/27 04:43:05;;;;;;;13.27;3.83;;;6.60;99.90;;;;;;5057787;28;20420;-85
2022/11/27 04:45:31;;;;;;;10.57;3.93;;;6.70;99.90;;;;;;5073280;28;20108;-87
2022/11/27 04:47:57;;;;;;;13.70;4.03;;;6.60;99.80;;;;;;5074187;28;20044;-86
2022/11/27 04:50:23;;;;;;;12.27;3.37;;;6.70;99.80;;;;;;5057691;28;20040;-86
2022/11/27 04:52:48;;;;;;;8.00;3.30;;;6.70;99.80;;;;;;5076201;28;20052;-85
2022/11/27 04:55:14;;;;;;;17.40;4.37;;;6.70;99.70;;;;;;5057282;28;20120;-87
2022/11/27 04:57:39;;;;;;;10.07;4.03;;;6.70;99.70;;;;;;5041588;28;20039;-86
2022/11/27 05:00:06;;;;;;;13.00;4.17;;;6.70;99.60;;;;;;5077673;28;20489;-87
2022/11/27 05:02:31;;;;;;;9.73;3.87;;;6.70;99.60;;;;;;5080201;28;20469;-87
2022/11/27 05:04:57;;;;;;;11.63;3.73;;;6.70;99.50;;;;;;5080177;28;20035;-87
2022/11/27 05:07:23;;;;;;;12.20;3.77;;;6.70;99.50;;;;;;5045590;28;20059;-87
2022/11/27 05:09:50;;;;;;;12.67;4.50;;;6.70;99.40;;;;;;5076406;28;20064;-87
2022/11/27 05:12:16;;;;;;;14.37;4.40;;;6.70;99.40;;;;;;5077162;28;20105;-87
2022/11/27 05:14:41;;;;;;;12.53;4.33;;;6.80;99.40;;;;;;5053210;28;20036;-86
2022/11/27 05:17:08;;;;;;;12.20;3.77;;;6.70;99.30;;;;;;5037498;28;20025;-85
2022/11/27 05:19:34;;;;;;;15.13;4.97;;;6.80;99.30;;;;;;5054032;28;20029;-86
2022/11/27 05:22:00;;;;;;;9.90;4.20;;;6.70;99.20;;;;;;5054967;28;20033;-88
2022/11/27 05:24:27;;;;;;;12.20;4.57;;;6.70;99.20;;;;;;5045230;28;20037;-88
2022/11/27 05:26:54;;;;;;;10.60;4.43;;;6.70;99.10;;;;;;5079878;28;20032;-89
2022/11/27 05:29:21;;;;;;;16.57;4.33;;;6.80;99.10;;;;;;5074129;28;20039;-86
2022/11/27 05:31:47;;;;;;;13.00;3.87;;;6.80;99.10;;;;;;5057467;28;20025;-86
2022/11/27 05:34:13;;;;;;;17.57;4.60;;;6.70;99.10;;;;;;5060135;28;20016;-88
2022/11/27 05:36:40;;;;;;;14.70;5.23;;;6.70;99.10;;;;;;5064115;28;20472;-87
2022/11/27 05:39:07;;;;;;;11.67;4.57;;;6.80;99.10;;;;;;5074276;28;20021;-86
2022/11/27 05:41:33;;;;;;;8.70;4.00;;;6.70;99.10;;;;;;5074153;28;20028;-87
2022/11/27 05:43:59;;;;;;;12.33;4.03;;;6.80;99.10;;;;;;5040056;28;20085;-85
2022/11/27 05:46:25;;;;;;;13.13;4.33;;;6.90;99.10;;;;;;5056803;28;20021;-85
2022/11/27 05:48:50;;;;;;;10.27;4.70;;;6.80;99.00;;;;;;5056468;28;20033;-85
2022/11/27 05:51:16;;;;;;;8.83;3.27;;;6.80;99.00;;;;;;5074095;28;20033;-84
2022/11/27 05:53:42;;;;;;;8.03;3.70;;;6.90;99.00;;;;;;5073676;28;20028;-85
2022/11/27 05:56:10;;;;;;;10.03;4.40;;;6.90;98.90;;;;;;5056931;28;20032;-89
2022/11/27 05:58:37;;;;;;;14.70;4.97;;;6.90;98.90;;;;;;5073881;28;20075;-88
2022/11/27 06:01:04;;;;;;;11.97;3.50;;;6.90;98.80;;;;;;5056812;28;20028;-86
2022/11/27 06:03:30;;;;;;;14.03;4.37;;;6.90;98.70;;;;;;5056742;28;20024;-85
2022/11/27 06:05:55;;;;;;;13.10;4.33;;;6.90;98.50;;;;;;5055035;28;20448;-84
2022/11/27 06:08:21;;;;;;;15.20;4.23;;;6.90;97.90;;;;;;5072506;28;20032;-84
2022/11/27 06:10:47;;;;;;;10.37;3.97;;;6.90;97.70;;;;;;5048672;28;20555;-83
2022/11/27 06:13:14;;;;;;;13.77;4.10;;;7.00;97.80;;;;;;5070342;28;20039;-86
2022/11/27 06:15:39;;;;;;;16.33;4.77;;;7.00;97.70;;;;;;5072814;28;20472;-86
2022/11/27 06:18:05;;;;;;;12.53;4.40;;;7.00;97.40;;;;;;5057118;28;20033;-88
2022/11/27 06:20:31;;;;;;;14.87;4.60;;;7.00;97.50;;;;;;5056547;28;20070;-85
2022/11/27 06:22:57;;;;;;;8.23;3.53;;;7.00;97.60;;;;;;5072813;28;20033;-89
2022/11/27 06:25:24;;;;;;;11.90;3.70;;;7.00;97.60;;;;;;5072591;28;20151;-87
2022/11/27 06:27:50;;;;;;;11.23;4.23;;;7.00;97.60;;;;;;5073040;28;20021;-86
2022/11/27 06:30:15;;;;;;;11.30;4.50;;;7.00;97.50;;;;;;5055815;28;20048;-88
2022/11/27 06:32:41;;;;;;;8.97;4.60;;;7.10;97.50;;;;;;5056404;28;20119;-87
2022/11/27 06:35:07;;;;;;;14.50;4.87;;;7.10;97.50;;;;;;5072966;28;20020;-86
2022/11/27 06:37:33;;;;;;;16.10;4.53;;;7.10;97.40;;;;;;5072825;28;20122;-86
2022/11/27 06:39:58;;;;;;;12.73;4.10;;;7.10;97.40;;;;;;5055182;28;20025;-84
2022/11/27 06:42:27;;;;;;;14.27;4.03;;;7.10;97.30;;;;;;5071896;28;20043;-85
2022/11/27 06:44:52;;;;;;;13.80;4.50;;;7.10;97.20;;;;;;5073932;28;20071;-85
2022/11/27 06:47:18;;;;;;;9.10;3.70;;;7.10;97.30;;;;;;5051172;28;20037;-85
2022/11/27 06:49:44;;;;;;;12.23;4.03;;;7.00;97.30;;;;;;5059894;28;20104;-85
2022/11/27 06:52:09;;;;;;;10.53;3.80;;;7.10;97.30;;;;;;5052843;28;20037;-87
2022/11/27 06:54:35;;;;;;;8.57;3.80;;;7.10;97.30;;;;;;5071688;28;20029;-85
2022/11/27 06:57:00;;;;;;;9.20;4.13;;;7.20;97.40;;;;;;5048043;28;20120;-84
2022/11/27 06:59:26;;;;;;;10.23;3.93;;;7.20;97.30;;;;;;5051129;28;20420;-85
2022/11/27 07:01:52;;;;;;;11.77;4.80;;;7.10;97.20;;;;;;5033828;28;20057;-85
2022/11/27 07:04:17;;;;;;;13.37;4.63;;;7.20;97.20;;;;;;5035597;28;20029;-85
2022/11/27 07:06:43;;;;;;;14.47;5.17;;;7.20;97.20;;;;;;5019818;28;20492;-85
2022/11/27 07:09:09;;;;;;;12.17;4.20;;;7.20;97.00;;;;;;5047752;28;20032;-89
2022/11/27 07:11:35;;;;;;;12.97;4.73;;;7.20;97.00;;;;;;5062456;28;20049;-86
2022/11/27 07:14:03;;;;;;;12.00;4.33;;;7.20;96.80;;;;;;5057811;28;20033;-85
2022/11/27 07:16:31;;;;;;;10.57;4.77;;;7.20;96.70;;;;;;5064270;28;20439;-85
2022/11/27 07:18:59;;;;;;;10.20;4.27;;;7.20;96.70;;;;;;5068364;28;20070;-84
2022/11/27 07:21:26;;;;;;;10.90;4.57;;;7.20;96.80;;;;;;5071301;28;20100;-86
2022/11/27 07:23:53;;;;;;;15.73;4.20;;;7.20;96.80;;;;;;5059617;28;20081;-85
2022/11/27 07:26:24;;;;;;;10.00;4.30;;;7.20;96.80;;;;;;5059109;28;20033;-85
2022/11/27 07:28:50;;;;;;;13.73;4.53;;;7.30;96.90;;;;;;5076095;28;20391;-86
2022/11/27 07:31:19;;;;;;;12.33;5.57;;;7.30;96.90;;;;;;5049354;28;20027;-86
2022/11/27 07:33:45;;;;;;;15.70;4.60;;;7.30;97.00;;;;;;5067505;28;20082;-85
2022/11/27 07:36:19;;;;;;;14.37;5.87;;;7.30;97.00;;;;;;5076354;28;20029;-85
2022/11/27 07:38:45;;;;;;;;;;;7.30;97.00;;;;;;5076396;28;20029;-85
2022/11/27 07:41:11;;;;;;;14.63;5.13;;;7.30;97.00;;;;;;5062157;28;19987;-86
2022/11/27 07:43:39;;;;;;;12.23;5.43;;;7.30;96.90;;;;;;5079646;28;20025;-85
2022/11/27 07:46:07;;;;;;;13.43;5.43;;;7.20;96.90;;;;;;5076460;28;20021;-85
2022/11/27 07:48:33;;;;;;;13.50;4.97;;;7.30;96.90;;;;;;5075747;28;20020;-85
2022/11/27 07:50:59;;;;;;;12.27;5.27;;;7.30;97.00;;;;;;5058521;28;20047;-85
2022/11/27 07:53:25;;;;;;;13.63;5.80;;;7.30;97.00;;;;;;5076577;28;20021;-85
2022/11/27 07:55:50;;;;;;;11.93;5.60;;;7.30;97.00;;;;;;5058747;28;20052;-85
2022/11/27 07:58:16;;;;;;;15.57;6.73;;;7.40;97.10;;;;;;5058386;28;20032;-85
2022/11/27 08:00:42;;;;;;;13.37;5.63;;;7.30;97.10;;;;;;5058538;28;20024;-85
2022/11/27 08:03:09;;;;;;;15.87;6.73;;;7.30;97.10;;;;;;5057085;28;20071;-85
2022/11/27 08:05:36;;;;;;;12.93;5.87;;;7.30;97.10;;;;;;5074531;28;20107;-86
2022/11/27 08:08:03;;;;;;;13.83;5.90;;;7.40;97.20;;;;;;5075814;28;20452;-86
2022/11/27 08:10:30;;;;;;;16.27;6.17;;;7.40;97.20;;;;;;5075555;28;20033;-86
2022/11/27 08:12:57;;;;;;;18.13;7.43;;;7.40;97.20;;;;;;5057533;28;20045;-85
2022/11/27 08:15:23;;;;;;;18.53;7.53;;;7.40;97.30;;;;;;5075936;28;20448;-86
2022/11/27 08:17:49;;;;;;;16.67;6.93;;;7.40;97.30;;;;;;5076326;28;20078;-86
2022/11/27 08:20:14;;;;;;;19.43;7.23;;;7.40;97.30;;;;;;5058390;28;20029;-86
2022/11/27 08:22:40;;;;;;;16.47;6.70;;;7.30;97.60;;;;;;5041173;28;20048;-87
2022/11/27 08:25:06;;;;;;;16.13;7.27;;;7.30;97.40;;;;;;5058680;28;20115;-87
2022/11/27 08:27:32;;;;;;;18.03;7.50;;;7.30;97.40;;;;;;5075547;28;20032;-86
2022/11/27 08:29:59;;;;;;;17.87;8.00;;;7.30;97.50;;;;;;5059827;28;20043;-86
2022/11/27 08:32:24;;;;;;;15.83;8.17;;;7.30;97.60;;;;;;5059711;28;20468;-86
2022/11/27 08:34:50;;;;;;;19.90;7.40;;;7.30;97.70;;;;;;5058231;28;20044;-86
2022/11/27 08:37:16;;;;;;;21.30;8.17;;;7.30;97.70;;;;;;5066363;28;20461;-87
2022/11/27 08:39:41;;;;;;;20.03;7.73;;;7.30;97.80;;;;;;5072880;28;20420;-86
2022/11/27 08:42:07;;;;;;;20.87;8.57;;;7.20;97.90;;;;;;5074277;28;20452;-87
2022/11/27 08:44:32;;;;;;;14.50;7.57;;;7.30;97.90;;;;;;5057202;28;20032;-87
2022/11/27 08:46:58;;;;;;;18.67;7.30;;;7.30;98.00;;;;;;5074342;28;20042;-88
2022/11/27 08:49:24;;;;;;;20.17;8.83;;;7.40;98.10;;;;;;5073964;28;20037;-88
2022/11/27 08:51:49;;;;;;;17.83;8.37;;;7.30;98.20;;;;;;5056231;28;20082;-86
2022/11/27 08:54:15;;;;;;;18.07;7.90;;;7.30;98.30;;;;;;5039717;28;20056;-87
2022/11/27 08:56:41;;;;;;;18.63;7.67;;;7.30;98.30;;;;;;5073266;28;20043;-86
2022/11/27 08:59:07;;;;;;;18.10;8.33;;;7.30;98.40;;;;;;5057496;28;20465;-87
2022/11/27 09:01:33;;;;;;;17.47;7.53;;;7.20;98.50;;;;;;5075595;28;20032;-84
2022/11/27 09:03:59;;;;;;;16.90;8.07;;;7.30;98.60;;;;;;5073692;28;20029;-85
2022/11/27 09:06:29;;;;;;;16.47;8.33;;;7.30;98.70;;;;;;5073867;28;20483;-86
2022/11/27 09:09:00;;;;;;;20.83;8.53;;;7.30;98.80;;;;;;5073947;28;20025;-86
2022/11/27 09:11:27;;;;;;;20.83;9.13;;;7.30;98.80;;;;;;5073121;28;20114;-85
2022/11/27 09:13:53;;;;;;;19.20;8.33;;;7.50;98.90;;;;;;5073426;28;20112;-86
2022/11/27 09:16:20;;;;;;;17.07;8.07;;;7.30;98.90;;;;;;5056942;28;20440;-86
2022/11/27 09:18:49;;;;;;;16.57;7.20;;;7.40;98.90;;;;;;5075119;28;20024;-85
2022/11/27 09:21:16;;;;;;;16.73;8.50;;;7.40;98.90;;;;;;5074183;28;20047;-86
2022/11/27 09:23:42;;;;;;;19.60;8.07;;;7.40;98.90;;;;;;5056996;28;20029;-86
2022/11/27 09:26:11;;;;;;;25.77;8.93;;;7.40;99.00;;;;;;5057266;28;20027;-86
2022/11/27 09:28:38;;;;;;;16.97;7.90;;;7.30;99.00;;;;;;5073821;28;20024;-85
2022/11/27 09:31:05;;;;;;;18.03;9.20;;;7.50;99.30;;;;;;5072926;28;20028;-87
2022/11/27 09:33:32;;;;;;;18.40;8.27;;;7.40;99.00;;;;;;5087099;28;20481;-85
2022/11/27 09:36:03;;;;;;;19.97;8.17;;;7.40;99.00;;;;;;5055646;28;20078;-86
2022/11/27 09:38:29;;;;;;;15.07;7.37;;;7.40;99.10;;;;;;5072233;28;20032;-86
2022/11/27 09:41:05;;;;;;;17.87;7.27;;;7.40;99.30;;;;;;5071166;28;20028;-86
2022/11/27 09:43:35;;;;;;;20.57;8.27;;;7.30;99.10;;;;;;5071161;28;20017;-86
2022/11/27 09:46:10;;;;;;;18.37;7.63;;;7.50;99.10;;;;;;5074599;28;20048;-86
2022/11/27 09:48:40;;;;;;;21.50;8.77;;;7.50;99.20;;;;;;5073525;28;20071;-86
2022/11/27 09:51:34;;;;;;;18.03;8.27;;;7.50;99.20;;;;;;5073951;28;20043;-86
2022/11/27 09:54:12;;;;;;;23.75;8.77;;;7.60;99.20;;;;;;5067132;28;20032;-86
2022/11/27 09:56:39;;;;;;;15.70;7.10;;;7.60;99.20;;;;;;5074262;28;20097;-86
2022/11/27 09:59:14;;;;;;;18.07;8.07;;;7.60;99.30;;;;;;5055929;28;20032;-86
2022/11/27 10:01:40;;;;;;;16.90;8.67;;;7.60;99.20;;;;;;5074411;28;20081;-86
2022/11/27 10:04:08;;;;;;;16.93;7.87;;;7.60;99.20;;;;;;5056228;28;20107;-86
2022/11/27 10:06:46;;;;;;;18.60;8.53;;;7.60;99.30;;;;;;5073188;28;20484;-86
2022/11/27 10:09:42;;;;;;;16.63;8.27;;;7.70;99.20;;;;;;5074307;28;20084;-86
2022/11/27 10:12:28;;;;;;;18.60;8.43;;;7.70;99.20;;;;;;5073966;28;20041;-86
2022/11/27 10:15:03;;;;;;;16.87;7.70;;;7.70;99.20;;;;;;5087510;28;20031;-86
2022/11/27 10:17:37;;;;;;;19.17;7.77;;;7.70;99.20;;;;;;5072365;28;20025;-86
2022/11/27 10:20:11;;;;;;;17.45;8.70;;;7.70;99.20;;;;;;5086820;28;20035;-86
2022/11/27 10:22:51;;;;;;;19.70;8.23;;;7.70;99.30;;;;;;5064700;28;20064;-86
2022/11/27 10:25:19;;;;;;;18.10;8.33;;;7.70;99.20;;;;;;5057168;28;20020;-85
2022/11/27 10:28:06;;;;;;;15.53;7.30;;;7.70;99.30;;;;;;5066390;28;20020;-86
2022/11/27 10:30:38;;;;;;;14.90;7.57;;;7.80;99.30;;;;;;5074151;28;20563;-85
2022/11/27 10:33:13;;;;;;;17.87;7.90;;;7.80;99.30;;;;;;5075623;28;20043;-91
2022/11/27 10:35:41;;;;;;;14.33;7.70;;;7.80;99.30;;;;;;5073267;28;20071;-88
2022/11/27 10:38:30;;;;;;;17.17;8.37;;;7.90;99.30;;;;;;5072979;28;20027;-88
2022/11/27 10:41:17;;;;;;;16.63;7.63;;;7.80;99.30;;;;;;5069488;28;20053;-87
2022/11/27 10:43:45;;;;;;;17.33;7.70;;;7.80;99.30;;;;;;5068510;28;20025;-88
2022/11/27 10:46:20;;;;;;;18.10;8.70;;;7.90;99.40;;;;;;5055788;28;20112;-87
2022/11/27 10:48:46;;;;;;;16.70;7.37;;;7.90;99.30;;;;;;5070937;28;20546;-88
2022/11/27 10:51:18;;;;;;;18.63;8.63;;;8.00;99.40;;;;;;5055272;28;20029;-88
2022/11/27 10:53:47;;;;;;;17.57;7.20;;;7.90;99.30;;;;;;5063787;28;20116;-81
2022/11/27 10:56:14;;;;;;;15.67;7.53;;;7.90;99.30;;;;;;5045335;28;20027;-80
2022/11/27 10:58:45;;;;;;;16.37;7.13;;;8.00;99.30;;;;;;5062415;28;20056;-80
2022/11/27 11:01:14;;;;;;;15.77;7.90;;;8.00;99.30;;;;;;5072221;28;20048;-81
2022/11/27 11:03:40;;;;;;;15.43;6.57;;;8.00;99.30;;;;;;5057340;28;20032;-81
2022/11/27 11:06:28;;;;;;;18.47;7.30;;;8.00;99.30;;;;;;5069387;28;20032;-81
2022/11/27 11:09:13;;;;;;;19.20;7.67;;;8.10;99.30;;;;;;5066628;28;20047;-81
2022/11/27 11:11:39;;;;;;;16.30;7.00;;;8.10;99.30;;;;;;5070146;28;20040;-83
2022/11/27 11:14:17;;;;;;;15.97;6.97;;;8.10;99.20;;;;;;5072883;28;20031;-83
2022/11/27 11:16:43;;;;;;;15.03;6.77;;;8.10;99.20;;;;;;5075585;28;20040;-82
2022/11/27 11:19:31;;;;;;;12.73;6.27;;;8.10;99.20;;;;;;5073626;28;20071;-84
2022/11/27 11:21:59;;;;;;;13.40;6.57;;;8.10;99.20;;;;;;5071763;28;20085;-84
2022/11/27 11:24:29;;;;;;;14.10;6.47;;;8.20;99.20;;;;;;5075553;28;20096;-84
2022/11/27 11:27:03;;;;;;;15.10;7.07;;;8.20;99.10;;;;;;5070701;28;20070;-84
2022/11/27 11:29:48;;;;;;;14.05;6.30;;;8.20;99.00;;;;;;5070870;28;20036;-85
2022/11/27 11:32:29;;;;;;;15.37;7.60;;;8.30;99.10;;;;;;5072525;28;20013;-84
2022/11/27 11:35:22;;;;;;;13.10;7.80;;;8.20;99.00;;;;;;5070986;28;20027;-85
2022/11/27 11:37:48;;;;;;;12.90;6.27;;;8.30;99.00;;;;;;5057257;28;20041;-84
2022/11/27 11:40:15;;;;;;;12.73;6.77;;;8.30;98.90;;;;;;5069623;28;20503;-85
2022/11/27 11:42:57;;;;;;;14.33;6.90;;;8.30;98.90;;;;;;5071210;28;20071;-85
2022/11/27 11:45:23;;;;;;;16.37;6.43;;;8.30;98.80;;;;;;5070274;28;20017;-85
2022/11/27 11:47:52;;;;;;;17.33;7.40;;;8.30;98.70;;;;;;5072063;28;20082;-85
2022/11/27 11:50:41;;;;;;;15.10;6.97;;;8.30;98.60;;;;;;5069903;28;20123;-84
2022/11/27 11:53:12;;;;;;;14.37;6.40;;;8.30;98.50;;;;;;5072465;28;20028;-85
2022/11/27 11:55:51;;;;;;;14.17;6.70;;;8.30;98.50;;;;;;5073926;28;20082;-84
2022/11/27 11:58:32;;;;;;;10.33;6.00;;;8.30;98.40;;;;;;5074624;28;20032;-84
2022/11/27 12:01:13;;;;;;;16.17;6.33;;;8.30;98.40;;;;;;5074513;28;20043;-85
2022/11/27 12:03:57;;;;;;;14.70;6.80;;;8.30;98.40;;;;;;5074603;28;20021;-85
2022/11/27 12:06:41;;;;;;;;;;;8.30;98.30;;;;;;5076118;28;20032;-84
2022/11/27 12:09:33;;;;;;;13.73;6.77;;;8.30;98.40;;;;;;5082698;28;19904;-85
2022/11/27 12:12:22;;;;;;;12.00;6.10;;;8.30;98.40;;;;;;5076704;28;20048;-85
2022/11/27 12:15:15;;;;;;;12.70;6.53;;;8.30;98.50;;;;;;5074579;28;20020;-85
2022/11/27 12:18:01;;;;;;;10.73;5.87;;;8.40;98.50;;;;;;5071115;28;20025;-85
2022/11/27 12:20:52;;;;;;;14.07;5.57;;;8.40;98.60;;;;;;5069818;28;20032;-85
2022/11/27 12:23:42;;;;;;;16.73;7.10;;;8.40;98.60;;;;;;5074777;28;20013;-84
2022/11/27 12:26:41;;;;;;;12.43;5.67;;;8.40;98.60;;;;;;5076131;28;20039;-84
2022/11/27 12:29:31;;;;;;;12.07;5.63;;;8.50;98.60;;;;;;5065803;28;20044;-85
2022/11/27 12:32:34;;;;;;;15.13;6.80;;;8.50;98.60;;;;;;5074214;28;20024;-85
2022/11/27 12:35:24;;;;;;;13.23;6.27;;;8.60;98.60;;;;;;5074311;28;20502;-85
2022/11/27 12:38:04;;;;;;;12.87;6.40;;;8.60;98.60;;;;;;5074890;28;20473;-85
2022/11/27 12:40:29;;;;;;;14.73;7.00;;;8.60;98.60;;;;;;5060117;28;20123;-85
2022/11/27 12:43:31;;;;;;;12.53;6.20;;;8.60;98.60;;;;;;5063700;28;20440;-84
2022/11/27 12:46:14;;;;;;;14.53;7.07;;;8.60;98.60;;;;;;5062908;28;20205;-85
2022/11/27 12:49:02;;;;;;;11.87;5.63;;;8.60;98.50;;;;;;5073751;28;20357;-85
2022/11/27 12:51:31;;;;;;;11.53;5.27;;;8.60;98.50;;;;;;5075418;28;20082;-85
2022/11/27 12:54:02;;;;;;;12.17;6.33;;;8.60;98.50;;;;;;5073832;28;20025;-84
2022/11/27 12:56:37;;;;;;;13.17;6.23;;;8.60;98.50;;;;;;5073899;28;20384;-84
2022/11/27 12:59:19;;;;;;;12.50;6.80;;;8.60;98.40;;;;;;5074046;28;20111;-85
2022/11/27 13:01:54;;;;;;;11.70;6.03;;;8.60;98.40;;;;;;5073417;28;20048;-85
2022/11/27 13:04:29;;;;;;;16.10;6.33;;;8.60;98.20;;;;;;5073540;28;20070;-85
2022/11/27 13:07:25;;;;;;;10.63;5.40;;;8.50;98.10;;;;;;5069036;28;20456;-84